sensor_id;sensor_type;location;lat;lon;timestamp;P1;durP1;ratioP1;P2;durP2;ratioP2
32407;SDS011;18869;55.970;37.502;2023-03-03T00:00:52;4.70;;;4.07;;
32407;SDS011;18869;55.970;37.502;2023-03-03T00:03:21;4.70;;;4.30;;
32407;SDS011;18869;55.970;37.502;2023-03-03T00:05:50;6.77;;;4.40;;
32407;SDS011;18869;55.970;37.502;2023-03-03T00:08:18;5.00;;;4.50;;
32407;SDS011;18869;55.970;37.502;2023-03-03T00:10:46;4.80;;;3.40;;
32407;SDS011;18869;55.970;37.502;2023-03-03T00:13:16;4.47;;;4.07;;
32407;SDS011;18869;55.970;37.502;2023-03-03T00:15:44;4.80;;;4.40;;
32407;SDS011;18869;55.970;37.502;2023-03-03T00:18:16;4.70;;;4.40;;
32407;SDS011;18869;55.970;37.502;2023-03-03T00:20:48;6.10;;;4.27;;
32407;SDS011;18869;55.970;37.502;2023-03-03T00:23:19;7.00;;;4.03;;
32407;SDS011;18869;55.970;37.502;2023-03-03T00:25:52;4.00;;;3.57;;
32407;SDS011;18869;55.970;37.502;2023-03-03T00:28:24;4.07;;;3.77;;
32407;SDS011;18869;55.970;37.502;2023-03-03T00:30:53;4.60;;;4.20;;
32407;SDS011;18869;55.970;37.502;2023-03-03T00:33:27;4.77;;;4.33;;
32407;SDS011;18869;55.970;37.502;2023-03-03T00:38:52;4.87;;;4.00;;
32407;SDS011;18869;55.970;37.502;2023-03-03T00:41:21;5.03;;;3.90;;
32407;SDS011;18869;55.970;37.502;2023-03-03T00:43:51;4.03;;;3.83;;
32407;SDS011;18869;55.970;37.502;2023-03-03T00:46:20;5.87;;;4.17;;
32407;SDS011;18869;55.970;37.502;2023-03-03T00:48:48;7.13;;;3.50;;
32407;SDS011;18869;55.970;37.502;2023-03-03T00:51:25;4.43;;;4.13;;
32407;SDS011;18869;55.970;37.502;2023-03-03T00:53:53;8.83;;;3.63;;
32407;SDS011;18869;55.970;37.502;2023-03-03T00:56:21;5.10;;;4.67;;
32407;SDS011;18869;55.970;37.502;2023-03-03T00:58:51;4.53;;;3.87;;
32407;SDS011;18869;55.970;37.502;2023-03-03T01:01:20;4.50;;;4.10;;
32407;SDS011;18869;55.970;37.502;2023-03-03T01:03:50;3.83;;;3.40;;
32407;SDS011;18869;55.970;37.502;2023-03-03T01:06:17;4.53;;;3.27;;
32407;SDS011;18869;55.970;37.502;2023-03-03T01:08:46;4.37;;;3.97;;
32407;SDS011;18869;55.970;37.502;2023-03-03T01:11:14;4.20;;;3.90;;
32407;SDS011;18869;55.970;37.502;2023-03-03T01:13:43;4.40;;;3.77;;
32407;SDS011;18869;55.970;37.502;2023-03-03T01:16:14;5.87;;;4.03;;
32407;SDS011;18869;55.970;37.502;2023-03-03T01:18:41;4.17;;;3.80;;
32407;SDS011;18869;55.970;37.502;2023-03-03T01:21:09;4.87;;;3.70;;
32407;SDS011;18869;55.970;37.502;2023-03-03T01:23:37;4.90;;;4.20;;
32407;SDS011;18869;55.970;37.502;2023-03-03T01:26:05;8.87;;;4.43;;
32407;SDS011;18869;55.970;37.502;2023-03-03T01:28:33;3.77;;;3.47;;
32407;SDS011;18869;55.970;37.502;2023-03-03T01:31:01;4.90;;;4.07;;
32407;SDS011;18869;55.970;37.502;2023-03-03T01:33:31;4.47;;;4.10;;
32407;SDS011;18869;55.970;37.502;2023-03-03T01:35:59;4.73;;;3.97;;
32407;SDS011;18869;55.970;37.502;2023-03-03T01:38:27;3.97;;;3.67;;
32407;SDS011;18869;55.970;37.502;2023-03-03T01:40:57;5.07;;;4.13;;
32407;SDS011;18869;55.970;37.502;2023-03-03T01:43:25;6.63;;;4.40;;
32407;SDS011;18869;55.970;37.502;2023-03-03T01:48:59;8.00;;;3.80;;
32407;SDS011;18869;55.970;37.502;2023-03-03T01:51:28;6.10;;;4.13;;
32407;SDS011;18869;55.970;37.502;2023-03-03T01:53:58;4.57;;;3.93;;
32407;SDS011;18869;55.970;37.502;2023-03-03T01:56:28;4.50;;;3.90;;
32407;SDS011;18869;55.970;37.502;2023-03-03T01:58:57;4.20;;;3.90;;
32407;SDS011;18869;55.970;37.502;2023-03-03T02:01:26;4.70;;;4.30;;
32407;SDS011;18869;55.970;37.502;2023-03-03T02:03:58;5.97;;;4.07;;
32407;SDS011;18869;55.970;37.502;2023-03-03T02:06:27;5.00;;;3.93;;
32407;SDS011;18869;55.970;37.502;2023-03-03T02:08:59;5.30;;;3.83;;
32407;SDS011;18869;55.970;37.502;2023-03-03T02:11:31;4.90;;;4.43;;
32407;SDS011;18869;55.970;37.502;2023-03-03T02:14:00;6.10;;;3.57;;
32407;SDS011;18869;55.970;37.502;2023-03-03T02:16:27;5.40;;;4.63;;
32407;SDS011;18869;55.970;37.502;2023-03-03T02:18:59;6.03;;;4.63;;
32407;SDS011;18869;55.970;37.502;2023-03-03T02:21:27;5.40;;;4.10;;
32407;SDS011;18869;55.970;37.502;2023-03-03T02:23:56;4.87;;;4.40;;
32407;SDS011;18869;55.970;37.502;2023-03-03T02:26:30;4.57;;;4.07;;
32407;SDS011;18869;55.970;37.502;2023-03-03T02:28:59;7.77;;;4.93;;
32407;SDS011;18869;55.970;37.502;2023-03-03T02:31:28;7.43;;;3.97;;
32407;SDS011;18869;55.970;37.502;2023-03-03T02:33:58;5.97;;;4.57;;
32407;SDS011;18869;55.970;37.502;2023-03-03T02:36:26;4.63;;;4.23;;
32407;SDS011;18869;55.970;37.502;2023-03-03T02:38:57;4.40;;;4.10;;
32407;SDS011;18869;55.970;37.502;2023-03-03T02:41:31;4.30;;;3.90;;
32407;SDS011;18869;55.970;37.502;2023-03-03T02:44:00;6.80;;;4.10;;
32407;SDS011;18869;55.970;37.502;2023-03-03T02:46:31;7.53;;;5.03;;
32407;SDS011;18869;55.970;37.502;2023-03-03T02:49:00;4.17;;;3.77;;
32407;SDS011;18869;55.970;37.502;2023-03-03T02:51:27;4.60;;;4.20;;
32407;SDS011;18869;55.970;37.502;2023-03-03T02:53:56;5.17;;;4.60;;
32407;SDS011;18869;55.970;37.502;2023-03-03T02:56:24;4.30;;;3.90;;
32407;SDS011;18869;55.970;37.502;2023-03-03T02:58:55;6.77;;;4.43;;
32407;SDS011;18869;55.970;37.502;2023-03-03T03:01:22;4.17;;;3.80;;
32407;SDS011;18869;55.970;37.502;2023-03-03T03:03:50;5.93;;;5.23;;
32407;SDS011;18869;55.970;37.502;2023-03-03T03:06:18;5.97;;;5.37;;
32407;SDS011;18869;55.970;37.502;2023-03-03T03:08:48;5.60;;;3.93;;
32407;SDS011;18869;55.970;37.502;2023-03-03T03:11:15;5.70;;;4.43;;
32407;SDS011;18869;55.970;37.502;2023-03-03T03:13:43;8.90;;;4.70;;
32407;SDS011;18869;55.970;37.502;2023-03-03T03:16:13;5.83;;;4.30;;
32407;SDS011;18869;55.970;37.502;2023-03-03T03:18:40;3.93;;;3.60;;
32407;SDS011;18869;55.970;37.502;2023-03-03T03:21:08;5.43;;;3.37;;
32407;SDS011;18869;55.970;37.502;2023-03-03T03:23:37;4.33;;;4.03;;
32407;SDS011;18869;55.970;37.502;2023-03-03T03:26:05;4.13;;;3.80;;
32407;SDS011;18869;55.970;37.502;2023-03-03T03:28:33;5.40;;;4.67;;
32407;SDS011;18869;55.970;37.502;2023-03-03T03:31:02;4.33;;;3.73;;
32407;SDS011;18869;55.970;37.502;2023-03-03T03:33:33;7.17;;;4.60;;
32407;SDS011;18869;55.970;37.502;2023-03-03T03:36:02;4.57;;;4.17;;
32407;SDS011;18869;55.970;37.502;2023-03-03T03:38:31;6.20;;;4.03;;
32407;SDS011;18869;55.970;37.502;2023-03-03T03:41:02;4.30;;;3.90;;
32407;SDS011;18869;55.970;37.502;2023-03-03T03:43:30;6.50;;;3.80;;
32407;SDS011;18869;55.970;37.502;2023-03-03T03:45:59;3.93;;;3.67;;
32407;SDS011;18869;55.970;37.502;2023-03-03T03:48:27;6.23;;;3.83;;
32407;SDS011;18869;55.970;37.502;2023-03-03T03:50:56;4.43;;;4.13;;
32407;SDS011;18869;55.970;37.502;2023-03-03T03:53:24;6.20;;;4.67;;
32407;SDS011;18869;55.970;37.502;2023-03-03T03:55:52;4.60;;;4.27;;
32407;SDS011;18869;55.970;37.502;2023-03-03T03:58:20;4.57;;;3.97;;
32407;SDS011;18869;55.970;37.502;2023-03-03T04:00:48;4.57;;;3.90;;
32407;SDS011;18869;55.970;37.502;2023-03-03T04:03:16;5.90;;;5.37;;
32407;SDS011;18869;55.970;37.502;2023-03-03T04:05:45;5.30;;;4.33;;
32407;SDS011;18869;55.970;37.502;2023-03-03T04:08:14;8.53;;;4.77;;
32407;SDS011;18869;55.970;37.502;2023-03-03T04:10:42;4.47;;;4.03;;
32407;SDS011;18869;55.970;37.502;2023-03-03T04:13:10;6.93;;;5.00;;
32407;SDS011;18869;55.970;37.502;2023-03-03T04:15:37;4.67;;;3.80;;
32407;SDS011;18869;55.970;37.502;2023-03-03T04:18:06;4.67;;;3.93;;
32407;SDS011;18869;55.970;37.502;2023-03-03T04:20:33;7.33;;;4.43;;
32407;SDS011;18869;55.970;37.502;2023-03-03T04:23:01;7.97;;;4.67;;
32407;SDS011;18869;55.970;37.502;2023-03-03T04:25:31;6.00;;;4.47;;
32407;SDS011;18869;55.970;37.502;2023-03-03T04:27:58;5.57;;;4.77;;
32407;SDS011;18869;55.970;37.502;2023-03-03T04:30:26;8.20;;;4.03;;
32407;SDS011;18869;55.970;37.502;2023-03-03T04:32:54;4.57;;;4.17;;
32407;SDS011;18869;55.970;37.502;2023-03-03T04:35:23;5.40;;;4.77;;
32407;SDS011;18869;55.970;37.502;2023-03-03T04:37:55;6.27;;;3.80;;
32407;SDS011;18869;55.970;37.502;2023-03-03T04:40:23;5.83;;;4.50;;
32407;SDS011;18869;55.970;37.502;2023-03-03T04:42:52;4.93;;;4.50;;
32407;SDS011;18869;55.970;37.502;2023-03-03T04:45:20;5.70;;;4.80;;
32407;SDS011;18869;55.970;37.502;2023-03-03T04:47:48;10.63;;;4.67;;
32407;SDS011;18869;55.970;37.502;2023-03-03T04:50:15;5.67;;;5.07;;
32407;SDS011;18869;55.970;37.502;2023-03-03T04:52:43;4.77;;;4.43;;
32407;SDS011;18869;55.970;37.502;2023-03-03T04:55:11;7.30;;;4.83;;
32407;SDS011;18869;55.970;37.502;2023-03-03T04:57:41;5.97;;;5.03;;
32407;SDS011;18869;55.970;37.502;2023-03-03T05:00:11;4.90;;;3.87;;
32407;SDS011;18869;55.970;37.502;2023-03-03T05:02:40;4.67;;;4.30;;
32407;SDS011;18869;55.970;37.502;2023-03-03T05:05:08;5.10;;;4.60;;
32407;SDS011;18869;55.970;37.502;2023-03-03T05:07:36;6.63;;;4.00;;
32407;SDS011;18869;55.970;37.502;2023-03-03T05:10:05;5.63;;;4.70;;
32407;SDS011;18869;55.970;37.502;2023-03-03T05:12:33;6.30;;;4.63;;
32407;SDS011;18869;55.970;37.502;2023-03-03T05:15:00;4.83;;;4.43;;
32407;SDS011;18869;55.970;37.502;2023-03-03T05:17:30;5.70;;;4.47;;
32407;SDS011;18869;55.970;37.502;2023-03-03T05:19:57;6.43;;;4.43;;
32407;SDS011;18869;55.970;37.502;2023-03-03T05:22:25;5.33;;;4.93;;
32407;SDS011;18869;55.970;37.502;2023-03-03T05:24:53;6.67;;;4.07;;
32407;SDS011;18869;55.970;37.502;2023-03-03T05:27:20;5.83;;;3.80;;
32407;SDS011;18869;55.970;37.502;2023-03-03T05:29:48;7.87;;;4.43;;
32407;SDS011;18869;55.970;37.502;2023-03-03T05:32:16;8.20;;;4.33;;
32407;SDS011;18869;55.970;37.502;2023-03-03T05:34:46;5.13;;;4.53;;
32407;SDS011;18869;55.970;37.502;2023-03-03T05:37:14;5.50;;;3.87;;
32407;SDS011;18869;55.970;37.502;2023-03-03T05:39:41;6.93;;;4.60;;
32407;SDS011;18869;55.970;37.502;2023-03-03T05:42:10;7.70;;;4.37;;
32407;SDS011;18869;55.970;37.502;2023-03-03T05:44:38;7.87;;;4.30;;
32407;SDS011;18869;55.970;37.502;2023-03-03T05:47:06;11.10;;;5.43;;
32407;SDS011;18869;55.970;37.502;2023-03-03T05:49:34;9.27;;;4.23;;
32407;SDS011;18869;55.970;37.502;2023-03-03T05:52:03;5.80;;;4.17;;
32407;SDS011;18869;55.970;37.502;2023-03-03T05:54:31;5.47;;;4.13;;
32407;SDS011;18869;55.970;37.502;2023-03-03T05:57:01;8.13;;;4.43;;
32407;SDS011;18869;55.970;37.502;2023-03-03T05:59:28;10.40;;;4.90;;
32407;SDS011;18869;55.970;37.502;2023-03-03T06:01:56;6.13;;;4.27;;
32407;SDS011;18869;55.970;37.502;2023-03-03T06:04:24;9.60;;;4.37;;
32407;SDS011;18869;55.970;37.502;2023-03-03T06:06:51;6.77;;;4.83;;
32407;SDS011;18869;55.970;37.502;2023-03-03T06:09:20;4.70;;;4.20;;
32407;SDS011;18869;55.970;37.502;2023-03-03T06:11:48;8.20;;;4.67;;
32407;SDS011;18869;55.970;37.502;2023-03-03T06:14:17;6.40;;;4.57;;
32407;SDS011;18869;55.970;37.502;2023-03-03T06:16:46;12.17;;;4.40;;
32407;SDS011;18869;55.970;37.502;2023-03-03T06:19:13;8.47;;;4.30;;
32407;SDS011;18869;55.970;37.502;2023-03-03T06:21:41;11.77;;;4.53;;
32407;SDS011;18869;55.970;37.502;2023-03-03T06:24:08;7.07;;;4.50;;
32407;SDS011;18869;55.970;37.502;2023-03-03T06:26:39;7.03;;;4.40;;
32407;SDS011;18869;55.970;37.502;2023-03-03T06:29:17;8.27;;;4.23;;
32407;SDS011;18869;55.970;37.502;2023-03-03T06:31:45;4.73;;;4.23;;
32407;SDS011;18869;55.970;37.502;2023-03-03T06:34:13;10.57;;;5.00;;
32407;SDS011;18869;55.970;37.502;2023-03-03T06:36:41;6.17;;;4.33;;
32407;SDS011;18869;55.970;37.502;2023-03-03T06:39:08;6.40;;;4.70;;
32407;SDS011;18869;55.970;37.502;2023-03-03T06:41:36;6.53;;;4.10;;
32407;SDS011;18869;55.970;37.502;2023-03-03T06:44:06;5.70;;;4.27;;
32407;SDS011;18869;55.970;37.502;2023-03-03T06:46:34;11.17;;;4.90;;
32407;SDS011;18869;55.970;37.502;2023-03-03T06:49:02;5.07;;;4.60;;
32407;SDS011;18869;55.970;37.502;2023-03-03T06:51:29;11.33;;;4.47;;
32407;SDS011;18869;55.970;37.502;2023-03-03T06:54:00;9.93;;;4.70;;
32407;SDS011;18869;55.970;37.502;2023-03-03T06:56:29;9.53;;;4.60;;
32407;SDS011;18869;55.970;37.502;2023-03-03T06:59:00;7.97;;;4.60;;
32407;SDS011;18869;55.970;37.502;2023-03-03T07:01:34;9.50;;;5.10;;
32407;SDS011;18869;55.970;37.502;2023-03-03T07:04:06;7.27;;;4.60;;
32407;SDS011;18869;55.970;37.502;2023-03-03T07:06:38;8.63;;;3.97;;
32407;SDS011;18869;55.970;37.502;2023-03-03T07:09:08;5.63;;;4.43;;
32407;SDS011;18869;55.970;37.502;2023-03-03T07:11:39;7.63;;;4.23;;
32407;SDS011;18869;55.970;37.502;2023-03-03T07:14:09;4.53;;;4.10;;
32407;SDS011;18869;55.970;37.502;2023-03-03T07:16:43;6.97;;;4.10;;
32407;SDS011;18869;55.970;37.502;2023-03-03T07:19:15;7.23;;;4.00;;
32407;SDS011;18869;55.970;37.502;2023-03-03T07:21:45;11.90;;;4.47;;
32407;SDS011;18869;55.970;37.502;2023-03-03T07:24:17;7.83;;;4.10;;
32407;SDS011;18869;55.970;37.502;2023-03-03T07:26:51;10.30;;;4.23;;
32407;SDS011;18869;55.970;37.502;2023-03-03T07:29:21;5.70;;;3.57;;
32407;SDS011;18869;55.970;37.502;2023-03-03T07:31:53;4.57;;;3.20;;
32407;SDS011;18869;55.970;37.502;2023-03-03T07:34:22;4.03;;;3.60;;
32407;SDS011;18869;55.970;37.502;2023-03-03T07:36:52;4.47;;;3.90;;
32407;SDS011;18869;55.970;37.502;2023-03-03T07:39:25;6.13;;;4.47;;
32407;SDS011;18869;55.970;37.502;2023-03-03T07:42:01;5.10;;;4.00;;
32407;SDS011;18869;55.970;37.502;2023-03-03T07:44:39;8.47;;;4.87;;
32407;SDS011;18869;55.970;37.502;2023-03-03T07:47:14;4.00;;;3.60;;
32407;SDS011;18869;55.970;37.502;2023-03-03T07:49:46;7.90;;;4.47;;
32407;SDS011;18869;55.970;37.502;2023-03-03T07:55:18;9.50;;;3.83;;
32407;SDS011;18869;55.970;37.502;2023-03-03T07:57:49;8.57;;;3.83;;
32407;SDS011;18869;55.970;37.502;2023-03-03T08:03:41;9.27;;;3.87;;
32407;SDS011;18869;55.970;37.502;2023-03-03T08:06:23;11.97;;;4.37;;
32407;SDS011;18869;55.970;37.502;2023-03-03T08:09:00;3.90;;;3.60;;
32407;SDS011;18869;55.970;37.502;2023-03-03T08:11:28;4.20;;;3.80;;
32407;SDS011;18869;55.970;37.502;2023-03-03T08:13:55;5.53;;;3.63;;
32407;SDS011;18869;55.970;37.502;2023-03-03T08:16:26;6.17;;;3.47;;
32407;SDS011;18869;55.970;37.502;2023-03-03T08:18:59;7.27;;;3.63;;
32407;SDS011;18869;55.970;37.502;2023-03-03T08:21:29;6.97;;;3.97;;
32407;SDS011;18869;55.970;37.502;2023-03-03T08:23:57;5.57;;;3.63;;
32407;SDS011;18869;55.970;37.502;2023-03-03T08:26:25;4.03;;;3.43;;
32407;SDS011;18869;55.970;37.502;2023-03-03T08:28:53;7.73;;;4.03;;
32407;SDS011;18869;55.970;37.502;2023-03-03T08:31:21;4.33;;;3.93;;
32407;SDS011;18869;55.970;37.502;2023-03-03T08:33:49;6.17;;;3.77;;
32407;SDS011;18869;55.970;37.502;2023-03-03T08:36:19;3.87;;;3.40;;
32407;SDS011;18869;55.970;37.502;2023-03-03T08:38:48;6.77;;;3.97;;
32407;SDS011;18869;55.970;37.502;2023-03-03T08:41:15;4.27;;;3.97;;
32407;SDS011;18869;55.970;37.502;2023-03-03T08:43:44;4.30;;;3.67;;
32407;SDS011;18869;55.970;37.502;2023-03-03T08:46:11;5.83;;;3.77;;
32407;SDS011;18869;55.970;37.502;2023-03-03T08:48:38;9.00;;;4.37;;
32407;SDS011;18869;55.970;37.502;2023-03-03T08:51:08;5.43;;;3.77;;
32407;SDS011;18869;55.970;37.502;2023-03-03T08:53:37;4.77;;;3.73;;
32407;SDS011;18869;55.970;37.502;2023-03-03T08:56:04;5.80;;;3.57;;
32407;SDS011;18869;55.970;37.502;2023-03-03T08:58:33;6.33;;;4.20;;
32407;SDS011;18869;55.970;37.502;2023-03-03T09:01:01;6.43;;;3.87;;
32407;SDS011;18869;55.970;37.502;2023-03-03T09:03:29;6.87;;;4.10;;
32407;SDS011;18869;55.970;37.502;2023-03-03T09:05:57;5.47;;;3.63;;
32407;SDS011;18869;55.970;37.502;2023-03-03T09:08:25;5.87;;;3.90;;
32407;SDS011;18869;55.970;37.502;2023-03-03T09:10:54;6.37;;;3.57;;
32407;SDS011;18869;55.970;37.502;2023-03-03T09:13:26;5.10;;;3.00;;
32407;SDS011;18869;55.970;37.502;2023-03-03T09:15:56;3.97;;;3.37;;
32407;SDS011;18869;55.970;37.502;2023-03-03T09:18:34;4.33;;;3.87;;
32407;SDS011;18869;55.970;37.502;2023-03-03T09:21:18;8.10;;;4.23;;
32407;SDS011;18869;55.970;37.502;2023-03-03T09:23:53;6.63;;;3.93;;
32407;SDS011;18869;55.970;37.502;2023-03-03T09:26:27;5.37;;;4.10;;
32407;SDS011;18869;55.970;37.502;2023-03-03T09:28:58;5.00;;;4.20;;
32407;SDS011;18869;55.970;37.502;2023-03-03T09:31:35;4.77;;;3.30;;
32407;SDS011;18869;55.970;37.502;2023-03-03T09:34:11;4.67;;;4.07;;
32407;SDS011;18869;55.970;37.502;2023-03-03T09:36:45;3.43;;;3.20;;
32407;SDS011;18869;55.970;37.502;2023-03-03T09:39:16;4.43;;;3.80;;
32407;SDS011;18869;55.970;37.502;2023-03-03T09:44:56;4.97;;;3.73;;
32407;SDS011;18869;55.970;37.502;2023-03-03T09:47:39;4.17;;;3.60;;
32407;SDS011;18869;55.970;37.502;2023-03-03T09:50:14;4.70;;;4.23;;
32407;SDS011;18869;55.970;37.502;2023-03-03T09:52:50;3.60;;;3.30;;
32407;SDS011;18869;55.970;37.502;2023-03-03T09:55:25;3.53;;;3.27;;
32407;SDS011;18869;55.970;37.502;2023-03-03T09:58:08;4.43;;;4.03;;
32407;SDS011;18869;55.970;37.502;2023-03-03T10:00:48;3.70;;;3.40;;
32407;SDS011;18869;55.970;37.502;2023-03-03T10:03:36;5.77;;;3.50;;
32407;SDS011;18869;55.970;37.502;2023-03-03T10:06:24;3.73;;;3.40;;
32407;SDS011;18869;55.970;37.502;2023-03-03T10:08:58;5.23;;;3.73;;
32407;SDS011;18869;55.970;37.502;2023-03-03T10:11:47;7.03;;;3.87;;
32407;SDS011;18869;55.970;37.502;2023-03-03T10:14:25;5.53;;;4.17;;
32407;SDS011;18869;55.970;37.502;2023-03-03T10:17:05;3.73;;;3.40;;
32407;SDS011;18869;55.970;37.502;2023-03-03T10:19:44;5.10;;;3.30;;
32407;SDS011;18869;55.970;37.502;2023-03-03T10:22:18;3.47;;;2.93;;
32407;SDS011;18869;55.970;37.502;2023-03-03T10:24:56;5.63;;;3.53;;
32407;SDS011;18869;55.970;37.502;2023-03-03T10:30:26;4.33;;;3.10;;
32407;SDS011;18869;55.970;37.502;2023-03-03T10:33:02;3.60;;;3.23;;
32407;SDS011;18869;55.970;37.502;2023-03-03T10:38:31;4.10;;;3.43;;
32407;SDS011;18869;55.970;37.502;2023-03-03T10:41:10;3.50;;;2.97;;
32407;SDS011;18869;55.970;37.502;2023-03-03T10:43:55;6.00;;;3.97;;
32407;SDS011;18869;55.970;37.502;2023-03-03T10:46:39;4.20;;;3.27;;
32407;SDS011;18869;55.970;37.502;2023-03-03T10:49:29;4.23;;;3.47;;
32407;SDS011;18869;55.970;37.502;2023-03-03T10:52:10;6.80;;;3.60;;
32407;SDS011;18869;55.970;37.502;2023-03-03T10:54:55;4.80;;;3.37;;
32407;SDS011;18869;55.970;37.502;2023-03-03T10:57:32;5.87;;;4.10;;
32407;SDS011;18869;55.970;37.502;2023-03-03T11:00:08;6.80;;;4.00;;
32407;SDS011;18869;55.970;37.502;2023-03-03T11:02:46;5.00;;;3.70;;
32407;SDS011;18869;55.970;37.502;2023-03-03T11:05:29;5.33;;;3.97;;
32407;SDS011;18869;55.970;37.502;2023-03-03T11:08:00;4.47;;;3.30;;
32407;SDS011;18869;55.970;37.502;2023-03-03T11:10:33;7.80;;;4.00;;
32407;SDS011;18869;55.970;37.502;2023-03-03T11:13:10;7.03;;;3.80;;
32407;SDS011;18869;55.970;37.502;2023-03-03T11:15:46;4.03;;;3.67;;
32407;SDS011;18869;55.970;37.502;2023-03-03T11:18:23;4.57;;;3.77;;
32407;SDS011;18869;55.970;37.502;2023-03-03T11:21:00;3.83;;;3.23;;
32407;SDS011;18869;55.970;37.502;2023-03-03T11:23:40;3.93;;;2.83;;
32407;SDS011;18869;55.970;37.502;2023-03-03T11:26:18;4.20;;;3.07;;
32407;SDS011;18869;55.970;37.502;2023-03-03T11:28:58;4.67;;;3.30;;
32407;SDS011;18869;55.970;37.502;2023-03-03T11:31:34;3.33;;;3.03;;
32407;SDS011;18869;55.970;37.502;2023-03-03T11:34:08;3.40;;;3.17;;
32407;SDS011;18869;55.970;37.502;2023-03-03T11:36:47;5.70;;;3.00;;
32407;SDS011;18869;55.970;37.502;2023-03-03T11:39:17;3.80;;;3.40;;
32407;SDS011;18869;55.970;37.502;2023-03-03T11:41:55;3.13;;;2.90;;
32407;SDS011;18869;55.970;37.502;2023-03-03T11:44:28;3.40;;;3.10;;
32407;SDS011;18869;55.970;37.502;2023-03-03T11:46:59;3.57;;;2.83;;
32407;SDS011;18869;55.970;37.502;2023-03-03T11:49:32;3.67;;;3.33;;
32407;SDS011;18869;55.970;37.502;2023-03-03T11:52:09;3.40;;;3.10;;
32407;SDS011;18869;55.970;37.502;2023-03-03T11:54:44;3.23;;;3.03;;
32407;SDS011;18869;55.970;37.502;2023-03-03T11:57:18;5.00;;;3.13;;
32407;SDS011;18869;55.970;37.502;2023-03-03T11:59:48;5.23;;;2.90;;
32407;SDS011;18869;55.970;37.502;2023-03-03T12:02:25;4.70;;;3.23;;
32407;SDS011;18869;55.970;37.502;2023-03-03T12:05:10;3.63;;;3.33;;
32407;SDS011;18869;55.970;37.502;2023-03-03T12:07:46;3.47;;;2.87;;
32407;SDS011;18869;55.970;37.502;2023-03-03T12:10:21;3.53;;;2.80;;
32407;SDS011;18869;55.970;37.502;2023-03-03T12:12:52;3.60;;;3.30;;
32407;SDS011;18869;55.970;37.502;2023-03-03T12:15:27;3.30;;;3.10;;
32407;SDS011;18869;55.970;37.502;2023-03-03T12:18:03;4.50;;;3.37;;
32407;SDS011;18869;55.970;37.502;2023-03-03T12:20:48;4.10;;;3.37;;
32407;SDS011;18869;55.970;37.502;2023-03-03T12:23:30;5.93;;;3.40;;
32407;SDS011;18869;55.970;37.502;2023-03-03T12:26:09;4.20;;;3.80;;
32407;SDS011;18869;55.970;37.502;2023-03-03T12:28:40;3.37;;;3.17;;
32407;SDS011;18869;55.970;37.502;2023-03-03T12:33:57;4.07;;;3.43;;
32407;SDS011;18869;55.970;37.502;2023-03-03T12:36:32;3.63;;;3.00;;
32407;SDS011;18869;55.970;37.502;2023-03-03T12:39:25;4.93;;;3.17;;
32407;SDS011;18869;55.970;37.502;2023-03-03T12:41:59;2.90;;;2.70;;
32407;SDS011;18869;55.970;37.502;2023-03-03T12:44:33;7.03;;;4.90;;
32407;SDS011;18869;55.970;37.502;2023-03-03T12:47:05;3.97;;;3.00;;
32407;SDS011;18869;55.970;37.502;2023-03-03T12:49:40;3.70;;;3.33;;
32407;SDS011;18869;55.970;37.502;2023-03-03T12:52:19;3.30;;;2.97;;
32407;SDS011;18869;55.970;37.502;2023-03-03T12:55:01;3.87;;;3.27;;
32407;SDS011;18869;55.970;37.502;2023-03-03T12:57:39;4.53;;;3.27;;
32407;SDS011;18869;55.970;37.502;2023-03-03T13:00:19;4.87;;;3.27;;
32407;SDS011;18869;55.970;37.502;2023-03-03T13:02:58;4.10;;;3.30;;
32407;SDS011;18869;55.970;37.502;2023-03-03T13:05:31;3.73;;;2.83;;
32407;SDS011;18869;55.970;37.502;2023-03-03T13:08:12;3.27;;;2.80;;
32407;SDS011;18869;55.970;37.502;2023-03-03T13:10:56;6.57;;;3.63;;
32407;SDS011;18869;55.970;37.502;2023-03-03T13:13:30;3.33;;;3.03;;
32407;SDS011;18869;55.970;37.502;2023-03-03T13:16:03;3.43;;;3.23;;
32407;SDS011;18869;55.970;37.502;2023-03-03T13:18:38;5.90;;;3.53;;
32407;SDS011;18869;55.970;37.502;2023-03-03T13:21:13;13.17;;;9.50;;
32407;SDS011;18869;55.970;37.502;2023-03-03T13:23:46;19.73;;;11.43;;
32407;SDS011;18869;55.970;37.502;2023-03-03T13:26:25;16.17;;;10.33;;
32407;SDS011;18869;55.970;37.502;2023-03-03T13:28:58;6.03;;;4.33;;
32407;SDS011;18869;55.970;37.502;2023-03-03T13:31:32;5.43;;;4.60;;
32407;SDS011;18869;55.970;37.502;2023-03-03T13:34:01;3.90;;;3.50;;
32407;SDS011;18869;55.970;37.502;2023-03-03T13:36:30;6.47;;;4.10;;
32407;SDS011;18869;55.970;37.502;2023-03-03T13:39:02;3.77;;;3.37;;
32407;SDS011;18869;55.970;37.502;2023-03-03T13:41:41;3.50;;;3.20;;
32407;SDS011;18869;55.970;37.502;2023-03-03T13:44:14;6.67;;;3.10;;
32407;SDS011;18869;55.970;37.502;2023-03-03T13:46:46;3.50;;;3.20;;
32407;SDS011;18869;55.970;37.502;2023-03-03T13:49:39;5.37;;;3.30;;
32407;SDS011;18869;55.970;37.502;2023-03-03T13:52:15;5.50;;;3.17;;
32407;SDS011;18869;55.970;37.502;2023-03-03T13:54:52;3.67;;;3.33;;
32407;SDS011;18869;55.970;37.502;2023-03-03T14:00:24;6.60;;;3.30;;
32407;SDS011;18869;55.970;37.502;2023-03-03T14:05:49;6.27;;;3.53;;
32407;SDS011;18869;55.970;37.502;2023-03-03T14:08:21;7.90;;;3.53;;
32407;SDS011;18869;55.970;37.502;2023-03-03T14:11:10;3.83;;;3.53;;
32407;SDS011;18869;55.970;37.502;2023-03-03T14:13:43;4.40;;;3.43;;
32407;SDS011;18869;55.970;37.502;2023-03-03T14:16:18;4.90;;;3.73;;
32407;SDS011;18869;55.970;37.502;2023-03-03T14:18:52;4.00;;;3.57;;
32407;SDS011;18869;55.970;37.502;2023-03-03T14:21:24;3.97;;;3.50;;
32407;SDS011;18869;55.970;37.502;2023-03-03T14:23:56;3.73;;;3.33;;
32407;SDS011;18869;55.970;37.502;2023-03-03T14:26:26;4.67;;;3.90;;
32407;SDS011;18869;55.970;37.502;2023-03-03T14:29:10;3.97;;;3.20;;
32407;SDS011;18869;55.970;37.502;2023-03-03T14:31:47;3.97;;;3.47;;
32407;SDS011;18869;55.970;37.502;2023-03-03T14:34:27;4.00;;;3.63;;
32407;SDS011;18869;55.970;37.502;2023-03-03T14:37:09;8.07;;;4.50;;
32407;SDS011;18869;55.970;37.502;2023-03-03T14:39:48;12.07;;;6.30;;
32407;SDS011;18869;55.970;37.502;2023-03-03T14:42:29;6.00;;;5.37;;
32407;SDS011;18869;55.970;37.502;2023-03-03T14:45:01;5.93;;;4.73;;
32407;SDS011;18869;55.970;37.502;2023-03-03T14:47:30;6.97;;;4.73;;
32407;SDS011;18869;55.970;37.502;2023-03-03T14:50:00;5.63;;;5.10;;
32407;SDS011;18869;55.970;37.502;2023-03-03T14:53:03;7.17;;;4.97;;
32407;SDS011;18869;55.970;37.502;2023-03-03T14:55:35;4.40;;;4.00;;
32407;SDS011;18869;55.970;37.502;2023-03-03T14:58:06;5.00;;;4.50;;
32407;SDS011;18869;55.970;37.502;2023-03-03T15:00:51;5.23;;;4.43;;
32407;SDS011;18869;55.970;37.502;2023-03-03T15:03:33;8.60;;;5.43;;
32407;SDS011;18869;55.970;37.502;2023-03-03T15:06:08;22.03;;;13.20;;
32407;SDS011;18869;55.970;37.502;2023-03-03T15:08:39;21.33;;;13.10;;
32407;SDS011;18869;55.970;37.502;2023-03-03T15:11:17;8.10;;;6.87;;
32407;SDS011;18869;55.970;37.502;2023-03-03T15:14:03;5.40;;;4.90;;
32407;SDS011;18869;55.970;37.502;2023-03-03T15:16:39;6.07;;;4.90;;
32407;SDS011;18869;55.970;37.502;2023-03-03T15:19:13;8.40;;;5.20;;
32407;SDS011;18869;55.970;37.502;2023-03-03T15:22:00;10.33;;;7.70;;
32407;SDS011;18869;55.970;37.502;2023-03-03T15:24:31;11.03;;;8.20;;
32407;SDS011;18869;55.970;37.502;2023-03-03T15:27:03;11.33;;;7.73;;
32407;SDS011;18869;55.970;37.502;2023-03-03T15:29:35;5.80;;;5.20;;
32407;SDS011;18869;55.970;37.502;2023-03-03T15:32:06;6.67;;;4.63;;